sensor_id;sensor_type;location;lat;lon;timestamp;temperature;humidity
60313;DHT22;46158;52.850;6.970;2023-04-03T00:01:01;14.30;73.50
60313;DHT22;46158;52.850;6.970;2023-04-03T00:03:27;14.30;73.50
60313;DHT22;46158;52.850;6.970;2023-04-03T00:05:53;14.20;73.40
60313;DHT22;46158;52.850;6.970;2023-04-03T00:08:19;14.20;73.40
60313;DHT22;46158;52.850;6.970;2023-04-03T00:10:45;14.20;73.40
60313;DHT22;46158;52.850;6.970;2023-04-03T00:13:11;14.20;73.40
60313;DHT22;46158;52.850;6.970;2023-04-03T00:15:37;14.20;73.30
60313;DHT22;46158;52.850;6.970;2023-04-03T00:18:04;14.20;73.30
60313;DHT22;46158;52.850;6.970;2023-04-03T00:20:30;14.20;73.30
60313;DHT22;46158;52.850;6.970;2023-04-03T00:23:05;14.10;73.20
60313;DHT22;46158;52.850;6.970;2023-04-03T00:25:32;14.10;73.10
60313;DHT22;46158;52.850;6.970;2023-04-03T00:27:58;14.10;73.20
60313;DHT22;46158;52.850;6.970;2023-04-03T00:30:24;14.10;73.10
60313;DHT22;46158;52.850;6.970;2023-04-03T00:32:51;14.10;73.10
60313;DHT22;46158;52.850;6.970;2023-04-03T00:35:18;14.10;73.10
60313;DHT22;46158;52.850;6.970;2023-04-03T00:37:45;14.00;73.00
60313;DHT22;46158;52.850;6.970;2023-04-03T00:40:12;14.00;73.00
60313;DHT22;46158;52.850;6.970;2023-04-03T00:42:40;14.00;73.00
60313;DHT22;46158;52.850;6.970;2023-04-03T00:47:54;14.00;73.00
60313;DHT22;46158;52.850;6.970;2023-04-03T00:50:27;14.00;73.00
60313;DHT22;46158;52.850;6.970;2023-04-03T00:52:53;13.90;72.90
60313;DHT22;46158;52.850;6.970;2023-04-03T00:55:19;13.90;72.90
60313;DHT22;46158;52.850;6.970;2023-04-03T00:57:46;13.90;72.90
60313;DHT22;46158;52.850;6.970;2023-04-03T01:00:15;13.90;72.90
60313;DHT22;46158;52.850;6.970;2023-04-03T01:02:42;13.90;72.80
60313;DHT22;46158;52.850;6.970;2023-04-03T01:05:08;13.80;72.90
60313;DHT22;46158;52.850;6.970;2023-04-03T01:07:35;13.80;72.80
60313;DHT22;46158;52.850;6.970;2023-04-03T01:10:05;13.90;72.90
60313;DHT22;46158;52.850;6.970;2023-04-03T01:12:54;13.80;72.80
60313;DHT22;46158;52.850;6.970;2023-04-03T01:15:26;13.80;72.80
60313;DHT22;46158;52.850;6.970;2023-04-03T01:17:57;13.80;72.80
60313;DHT22;46158;52.850;6.970;2023-04-03T01:25:42;13.80;72.90
60313;DHT22;46158;52.850;6.970;2023-04-03T01:28:11;13.70;72.80
60313;DHT22;46158;52.850;6.970;2023-04-03T01:33:29;13.70;72.80
60313;DHT22;46158;52.850;6.970;2023-04-03T01:36:23;13.70;72.90
60313;DHT22;46158;52.850;6.970;2023-04-03T01:38:50;13.70;72.80
60313;DHT22;46158;52.850;6.970;2023-04-03T01:41:16;13.60;72.80
60313;DHT22;46158;52.850;6.970;2023-04-03T01:43:43;13.60;72.70
60313;DHT22;46158;52.850;6.970;2023-04-03T01:46:09;13.60;72.70
60313;DHT22;46158;52.850;6.970;2023-04-03T01:48:34;13.60;72.70
60313;DHT22;46158;52.850;6.970;2023-04-03T01:51:00;13.60;72.70
60313;DHT22;46158;52.850;6.970;2023-04-03T01:53:29;13.60;72.70
60313;DHT22;46158;52.850;6.970;2023-04-03T01:55:58;13.60;72.70
60313;DHT22;46158;52.850;6.970;2023-04-03T01:58:24;13.50;72.60
60313;DHT22;46158;52.850;6.970;2023-04-03T02:00:51;13.50;72.60
60313;DHT22;46158;52.850;6.970;2023-04-03T02:03:16;13.50;72.60
60313;DHT22;46158;52.850;6.970;2023-04-03T02:05:43;13.50;72.60
60313;DHT22;46158;52.850;6.970;2023-04-03T02:08:09;13.50;72.60
60313;DHT22;46158;52.850;6.970;2023-04-03T02:10:38;13.40;72.50
60313;DHT22;46158;52.850;6.970;2023-04-03T02:13:04;13.40;72.50
60313;DHT22;46158;52.850;6.970;2023-04-03T02:15:51;13.40;72.50
60313;DHT22;46158;52.850;6.970;2023-04-03T02:18:17;13.40;72.50
60313;DHT22;46158;52.850;6.970;2023-04-03T02:20:47;13.40;72.60
60313;DHT22;46158;52.850;6.970;2023-04-03T02:23:15;13.40;72.50
60313;DHT22;46158;52.850;6.970;2023-04-03T02:25:43;13.30;73.20
60313;DHT22;46158;52.850;6.970;2023-04-03T02:28:15;13.30;72.50
60313;DHT22;46158;52.850;6.970;2023-04-03T02:30:41;13.30;72.50
60313;DHT22;46158;52.850;6.970;2023-04-03T02:33:21;13.30;72.50
60313;DHT22;46158;52.850;6.970;2023-04-03T02:35:54;13.30;72.30
60313;DHT22;46158;52.850;6.970;2023-04-03T02:38:21;13.30;72.40
60313;DHT22;46158;52.850;6.970;2023-04-03T02:40:47;13.20;72.40
60313;DHT22;46158;52.850;6.970;2023-04-03T02:43:13;13.20;72.30
60313;DHT22;46158;52.850;6.970;2023-04-03T02:45:39;13.20;72.30
60313;DHT22;46158;52.850;6.970;2023-04-03T02:48:05;13.20;72.40
60313;DHT22;46158;52.850;6.970;2023-04-03T02:50:31;13.20;72.30
60313;DHT22;46158;52.850;6.970;2023-04-03T02:52:57;13.20;72.30
60313;DHT22;46158;52.850;6.970;2023-04-03T02:55:36;13.20;72.30
60313;DHT22;46158;52.850;6.970;2023-04-03T02:58:11;13.20;72.20
60313;DHT22;46158;52.850;6.970;2023-04-03T03:00:38;13.10;72.30
60313;DHT22;46158;52.850;6.970;2023-04-03T03:03:04;13.10;72.30
60313;DHT22;46158;52.850;6.970;2023-04-03T03:05:30;13.10;72.30
60313;DHT22;46158;52.850;6.970;2023-04-03T03:07:56;13.10;72.30
60313;DHT22;46158;52.850;6.970;2023-04-03T03:10:22;13.10;72.20
60313;DHT22;46158;52.850;6.970;2023-04-03T03:12:47;13.00;72.20
60313;DHT22;46158;52.850;6.970;2023-04-03T03:15:14;13.00;72.20
60313;DHT22;46158;52.850;6.970;2023-04-03T03:17:40;13.00;72.20
60313;DHT22;46158;52.850;6.970;2023-04-03T03:20:10;13.00;72.10
60313;DHT22;46158;52.850;6.970;2023-04-03T03:22:40;13.00;72.20
60313;DHT22;46158;52.850;6.970;2023-04-03T03:25:07;13.00;72.20
60313;DHT22;46158;52.850;6.970;2023-04-03T03:27:44;13.00;72.10
60313;DHT22;46158;52.850;6.970;2023-04-03T03:30:11;13.00;72.10
60313;DHT22;46158;52.850;6.970;2023-04-03T03:32:37;12.90;72.10
60313;DHT22;46158;52.850;6.970;2023-04-03T03:35:03;12.90;72.00
60313;DHT22;46158;52.850;6.970;2023-04-03T03:37:31;12.90;72.70
60313;DHT22;46158;52.850;6.970;2023-04-03T03:39:57;12.90;72.00
60313;DHT22;46158;52.850;6.970;2023-04-03T03:42:26;12.90;72.00
60313;DHT22;46158;52.850;6.970;2023-04-03T03:44:52;12.80;71.90
60313;DHT22;46158;52.850;6.970;2023-04-03T03:47:20;12.80;71.90
60313;DHT22;46158;52.850;6.970;2023-04-03T03:49:46;12.80;72.00
60313;DHT22;46158;52.850;6.970;2023-04-03T03:52:12;12.80;71.90
60313;DHT22;46158;52.850;6.970;2023-04-03T03:54:38;12.80;71.90
60313;DHT22;46158;52.850;6.970;2023-04-03T03:57:07;12.80;71.90
60313;DHT22;46158;52.850;6.970;2023-04-03T03:59:33;12.80;72.00
60313;DHT22;46158;52.850;6.970;2023-04-03T04:02:05;12.70;71.90
60313;DHT22;46158;52.850;6.970;2023-04-03T04:04:31;12.70;71.80
60313;DHT22;46158;52.850;6.970;2023-04-03T04:07:00;12.70;71.80
60313;DHT22;46158;52.850;6.970;2023-04-03T04:09:26;12.70;71.80
60313;DHT22;46158;52.850;6.970;2023-04-03T04:11:53;12.70;72.00
60313;DHT22;46158;52.850;6.970;2023-04-03T04:14:19;12.70;72.00
60313;DHT22;46158;52.850;6.970;2023-04-03T04:16:51;12.60;72.00
60313;DHT22;46158;52.850;6.970;2023-04-03T04:19:17;12.70;72.10
60313;DHT22;46158;52.850;6.970;2023-04-03T04:21:49;12.60;72.10
60313;DHT22;46158;52.850;6.970;2023-04-03T04:24:15;12.60;72.10
60313;DHT22;46158;52.850;6.970;2023-04-03T04:26:48;12.60;72.20
60313;DHT22;46158;52.850;6.970;2023-04-03T04:29:14;12.60;72.20
60313;DHT22;46158;52.850;6.970;2023-04-03T04:31:43;12.60;72.40
60313;DHT22;46158;52.850;6.970;2023-04-03T04:34:09;12.60;72.40
60313;DHT22;46158;52.850;6.970;2023-04-03T04:36:35;12.60;72.50
60313;DHT22;46158;52.850;6.970;2023-04-03T04:39:01;12.60;72.50
60313;DHT22;46158;52.850;6.970;2023-04-03T04:41:30;12.60;72.60
60313;DHT22;46158;52.850;6.970;2023-04-03T04:43:57;12.60;72.80
60313;DHT22;46158;52.850;6.970;2023-04-03T04:46:23;12.60;72.80
60313;DHT22;46158;52.850;6.970;2023-04-03T04:48:52;12.60;73.00
60313;DHT22;46158;52.850;6.970;2023-04-03T04:51:28;12.50;73.00
60313;DHT22;46158;52.850;6.970;2023-04-03T04:54:06;12.50;73.20
60313;DHT22;46158;52.850;6.970;2023-04-03T04:56:32;12.50;73.30
60313;DHT22;46158;52.850;6.970;2023-04-03T04:58:58;12.50;73.30
60313;DHT22;46158;52.850;6.970;2023-04-03T05:01:27;12.50;73.40
60313;DHT22;46158;52.850;6.970;2023-04-03T05:03:57;12.50;73.50
60313;DHT22;46158;52.850;6.970;2023-04-03T05:06:33;12.50;73.60
60313;DHT22;46158;52.850;6.970;2023-04-03T05:09:03;12.60;73.80
60313;DHT22;46158;52.850;6.970;2023-04-03T05:11:30;12.50;73.80
60313;DHT22;46158;52.850;6.970;2023-04-03T05:13:58;12.50;73.90
60313;DHT22;46158;52.850;6.970;2023-04-03T05:16:45;12.50;74.10
60313;DHT22;46158;52.850;6.970;2023-04-03T05:19:11;12.50;74.30
60313;DHT22;46158;52.850;6.970;2023-04-03T05:21:37;12.50;74.40
60313;DHT22;46158;52.850;6.970;2023-04-03T05:24:03;12.50;74.40
60313;DHT22;46158;52.850;6.970;2023-04-03T05:26:30;12.50;74.40
60313;DHT22;46158;52.850;6.970;2023-04-03T05:28:56;12.50;74.40
60313;DHT22;46158;52.850;6.970;2023-04-03T05:31:23;12.50;74.50
60313;DHT22;46158;52.850;6.970;2023-04-03T05:33:49;12.50;74.50
60313;DHT22;46158;52.850;6.970;2023-04-03T05:36:35;12.50;74.60
60313;DHT22;46158;52.850;6.970;2023-04-03T05:39:01;12.50;74.60
60313;DHT22;46158;52.850;6.970;2023-04-03T05:41:27;12.50;74.70
60313;DHT22;46158;52.850;6.970;2023-04-03T05:43:53;12.50;74.80
60313;DHT22;46158;52.850;6.970;2023-04-03T05:46:20;12.50;74.80
60313;DHT22;46158;52.850;6.970;2023-04-03T05:48:46;12.50;74.90
60313;DHT22;46158;52.850;6.970;2023-04-03T05:51:18;12.50;74.90
60313;DHT22;46158;52.850;6.970;2023-04-03T05:53:45;12.50;75.00
60313;DHT22;46158;52.850;6.970;2023-04-03T05:56:12;12.50;75.10
60313;DHT22;46158;52.850;6.970;2023-04-03T05:58:38;12.50;75.10
60313;DHT22;46158;52.850;6.970;2023-04-03T06:01:09;12.50;75.20
60313;DHT22;46158;52.850;6.970;2023-04-03T06:03:35;12.40;75.20
60313;DHT22;46158;52.850;6.970;2023-04-03T06:06:33;12.50;75.30
60313;DHT22;46158;52.850;6.970;2023-04-03T06:08:58;12.50;75.30
60313;DHT22;46158;52.850;6.970;2023-04-03T06:11:34;12.50;75.40
60313;DHT22;46158;52.850;6.970;2023-04-03T06:14:01;12.50;75.50
60313;DHT22;46158;52.850;6.970;2023-04-03T06:16:28;12.50;75.60
60313;DHT22;46158;52.850;6.970;2023-04-03T06:18:54;12.50;75.70
60313;DHT22;46158;52.850;6.970;2023-04-03T06:21:30;12.50;75.70
60313;DHT22;46158;52.850;6.970;2023-04-03T06:23:56;12.50;75.70
60313;DHT22;46158;52.850;6.970;2023-04-03T06:26:21;12.50;75.70
60313;DHT22;46158;52.850;6.970;2023-04-03T06:28:48;12.50;75.70
60313;DHT22;46158;52.850;6.970;2023-04-03T06:31:13;12.50;76.40
60313;DHT22;46158;52.850;6.970;2023-04-03T06:33:39;12.50;75.80
60313;DHT22;46158;52.850;6.970;2023-04-03T06:36:05;12.50;75.90
60313;DHT22;46158;52.850;6.970;2023-04-03T06:38:33;12.50;75.90
60313;DHT22;46158;52.850;6.970;2023-04-03T06:40:59;12.50;76.00
60313;DHT22;46158;52.850;6.970;2023-04-03T06:43:25;12.50;76.00
60313;DHT22;46158;52.850;6.970;2023-04-03T06:45:51;12.50;76.10
60313;DHT22;46158;52.850;6.970;2023-04-03T06:48:17;12.50;76.20
60313;DHT22;46158;52.850;6.970;2023-04-03T06:50:47;12.50;76.30
60313;DHT22;46158;52.850;6.970;2023-04-03T06:53:12;12.50;76.30
60313;DHT22;46158;52.850;6.970;2023-04-03T06:55:38;12.50;76.40
60313;DHT22;46158;52.850;6.970;2023-04-03T06:58:04;12.50;76.50
60313;DHT22;46158;52.850;6.970;2023-04-03T07:00:30;12.50;76.60
60313;DHT22;46158;52.850;6.970;2023-04-03T07:02:56;12.50;76.70
60313;DHT22;46158;52.850;6.970;2023-04-03T07:05:23;12.60;76.80
60313;DHT22;46158;52.850;6.970;2023-04-03T07:07:50;12.60;76.80
60313;DHT22;46158;52.850;6.970;2023-04-03T07:10:17;12.60;76.80
60313;DHT22;46158;52.850;6.970;2023-04-03T07:12:43;12.60;76.70
60313;DHT22;46158;52.850;6.970;2023-04-03T07:15:09;12.60;76.60
60313;DHT22;46158;52.850;6.970;2023-04-03T07:17:35;12.60;76.50
60313;DHT22;46158;52.850;6.970;2023-04-03T07:20:03;12.60;76.40
60313;DHT22;46158;52.850;6.970;2023-04-03T07:22:29;12.60;76.50
60313;DHT22;46158;52.850;6.970;2023-04-03T07:24:55;12.60;76.70
60313;DHT22;46158;52.850;6.970;2023-04-03T07:27:21;12.70;76.80
60313;DHT22;46158;52.850;6.970;2023-04-03T07:29:47;12.70;76.80
60313;DHT22;46158;52.850;6.970;2023-04-03T07:32:15;12.70;76.90
60313;DHT22;46158;52.850;6.970;2023-04-03T07:34:40;12.70;77.00
60313;DHT22;46158;52.850;6.970;2023-04-03T07:37:06;12.70;77.00
60313;DHT22;46158;52.850;6.970;2023-04-03T07:39:34;12.70;77.10
60313;DHT22;46158;52.850;6.970;2023-04-03T07:42:00;12.70;77.20
60313;DHT22;46158;52.850;6.970;2023-04-03T07:44:27;12.70;77.30
60313;DHT22;46158;52.850;6.970;2023-04-03T07:46:53;12.70;77.30
60313;DHT22;46158;52.850;6.970;2023-04-03T07:49:21;12.70;77.40
60313;DHT22;46158;52.850;6.970;2023-04-03T07:51:48;12.80;77.50
60313;DHT22;46158;52.850;6.970;2023-04-03T07:54:17;12.80;77.70
60313;DHT22;46158;52.850;6.970;2023-04-03T07:56:51;12.80;77.70
60313;DHT22;46158;52.850;6.970;2023-04-03T07:59:37;12.80;77.70
60313;DHT22;46158;52.850;6.970;2023-04-03T08:02:04;12.80;77.70
60313;DHT22;46158;52.850;6.970;2023-04-03T08:04:30;12.80;77.80
60313;DHT22;46158;52.850;6.970;2023-04-03T08:06:56;12.90;77.90
60313;DHT22;46158;52.850;6.970;2023-04-03T08:09:22;12.90;77.90
60313;DHT22;46158;52.850;6.970;2023-04-03T08:11:47;12.90;77.90
60313;DHT22;46158;52.850;6.970;2023-04-03T08:14:13;12.90;77.90
60313;DHT22;46158;52.850;6.970;2023-04-03T08:16:44;12.90;77.90
60313;DHT22;46158;52.850;6.970;2023-04-03T08:19:10;13.00;78.00
60313;DHT22;46158;52.850;6.970;2023-04-03T08:21:47;13.00;78.00
60313;DHT22;46158;52.850;6.970;2023-04-03T08:24:13;13.00;77.80
60313;DHT22;46158;52.850;6.970;2023-04-03T08:26:39;13.00;77.70
60313;DHT22;46158;52.850;6.970;2023-04-03T08:29:08;13.00;77.60
60313;DHT22;46158;52.850;6.970;2023-04-03T08:31:33;13.00;77.40
60313;DHT22;46158;52.850;6.970;2023-04-03T08:33:59;13.00;77.30
60313;DHT22;46158;52.850;6.970;2023-04-03T08:36:27;13.10;77.20
60313;DHT22;46158;52.850;6.970;2023-04-03T08:38:56;13.10;77.00
60313;DHT22;46158;52.850;6.970;2023-04-03T08:41:44;13.10;76.90
60313;DHT22;46158;52.850;6.970;2023-04-03T08:44:49;13.20;76.80
60313;DHT22;46158;52.850;6.970;2023-04-03T08:47:38;13.10;76.60
60313;DHT22;46158;52.850;6.970;2023-04-03T08:50:16;13.20;76.60
60313;DHT22;46158;52.850;6.970;2023-04-03T08:52:56;13.20;76.60
60313;DHT22;46158;52.850;6.970;2023-04-03T08:55:29;13.20;76.50
60313;DHT22;46158;52.850;6.970;2023-04-03T08:58:04;13.20;76.40
60313;DHT22;46158;52.850;6.970;2023-04-03T09:03:23;13.30;76.10
60313;DHT22;46158;52.850;6.970;2023-04-03T09:08:44;13.30;75.90
60313;DHT22;46158;52.850;6.970;2023-04-03T09:14:01;13.30;75.80
60313;DHT22;46158;52.850;6.970;2023-04-03T09:22:25;13.30;75.40
60313;DHT22;46158;52.850;6.970;2023-04-03T09:27:42;13.40;75.30
60313;DHT22;46158;52.850;6.970;2023-04-03T09:30:33;13.40;75.20
60313;DHT22;46158;52.850;6.970;2023-04-03T09:33:00;13.40;74.90
60313;DHT22;46158;52.850;6.970;2023-04-03T09:35:28;13.40;74.90
60313;DHT22;46158;52.850;6.970;2023-04-03T09:38:14;13.40;74.80
60313;DHT22;46158;52.850;6.970;2023-04-03T09:40:42;13.50;74.80
60313;DHT22;46158;52.850;6.970;2023-04-03T09:45:47;13.50;74.60
60313;DHT22;46158;52.850;6.970;2023-04-03T09:51:13;13.50;74.50
60313;DHT22;46158;52.850;6.970;2023-04-03T09:53:44;13.50;74.40
60313;DHT22;46158;52.850;6.970;2023-04-03T09:58:50;13.50;74.20
60313;DHT22;46158;52.850;6.970;2023-04-03T10:01:34;13.60;74.10
60313;DHT22;46158;52.850;6.970;2023-04-03T10:04:18;13.60;73.90
60313;DHT22;46158;52.850;6.970;2023-04-03T10:06:54;13.60;73.80
60313;DHT22;46158;52.850;6.970;2023-04-03T10:09:30;13.60;73.80
60313;DHT22;46158;52.850;6.970;2023-04-03T10:12:08;13.60;73.50
60313;DHT22;46158;52.850;6.970;2023-04-03T10:15:00;13.60;73.40
60313;DHT22;46158;52.850;6.970;2023-04-03T10:22:55;13.70;73.20
60313;DHT22;46158;52.850;6.970;2023-04-03T10:28:05;13.70;72.90
60313;DHT22;46158;52.850;6.970;2023-04-03T10:39:02;13.70;73.00
60313;DHT22;46158;52.850;6.970;2023-04-03T10:50:35;13.80;73.00
60313;DHT22;46158;52.850;6.970;2023-04-03T10:55:22;13.80;73.00
60313;DHT22;46158;52.850;6.970;2023-04-03T10:57:50;13.80;73.00
60313;DHT22;46158;52.850;6.970;2023-04-03T11:00:35;13.80;73.10
60313;DHT22;46158;52.850;6.970;2023-04-03T11:03:14;13.80;73.00
60313;DHT22;46158;52.850;6.970;2023-04-03T11:05:45;13.80;73.00
60313;DHT22;46158;52.850;6.970;2023-04-03T11:08:30;13.90;73.10
60313;DHT22;46158;52.850;6.970;2023-04-03T11:11:03;13.90;73.10
60313;DHT22;46158;52.850;6.970;2023-04-03T11:16:26;13.90;73.30
60313;DHT22;46158;52.850;6.970;2023-04-03T11:21:42;13.80;73.50
60313;DHT22;46158;52.850;6.970;2023-04-03T11:24:29;13.90;73.60
60313;DHT22;46158;52.850;6.970;2023-04-03T11:27:02;13.90;73.50
60313;DHT22;46158;52.850;6.970;2023-04-03T11:29:37;13.90;73.60
60313;DHT22;46158;52.850;6.970;2023-04-03T11:34:43;13.90;73.60
60313;DHT22;46158;52.850;6.970;2023-04-03T11:37:46;14.00;73.70
60313;DHT22;46158;52.850;6.970;2023-04-03T11:40:24;13.90;73.60
60313;DHT22;46158;52.850;6.970;2023-04-03T11:48:09;13.90;73.70
60313;DHT22;46158;52.850;6.970;2023-04-03T11:51:02;13.90;74.50
60313;DHT22;46158;52.850;6.970;2023-04-03T11:53:40;13.90;74.50
60313;DHT22;46158;52.850;6.970;2023-04-03T11:56:35;13.90;73.80
60313;DHT22;46158;52.850;6.970;2023-04-03T11:59:15;14.00;73.70
60313;DHT22;46158;52.850;6.970;2023-04-03T12:04:19;14.00;73.60
60313;DHT22;46158;52.850;6.970;2023-04-03T12:12:32;14.00;73.30
60313;DHT22;46158;52.850;6.970;2023-04-03T12:15:24;14.00;73.40
60313;DHT22;46158;52.850;6.970;2023-04-03T12:17:50;14.00;73.40
60313;DHT22;46158;52.850;6.970;2023-04-03T12:20:52;14.00;73.50
60313;DHT22;46158;52.850;6.970;2023-04-03T12:23:28;14.10;73.40
60313;DHT22;46158;52.850;6.970;2023-04-03T12:26:01;14.10;73.50
60313;DHT22;46158;52.850;6.970;2023-04-03T12:28:36;14.10;73.50
60313;DHT22;46158;52.850;6.970;2023-04-03T12:31:04;14.10;73.50
60313;DHT22;46158;52.850;6.970;2023-04-03T12:33:44;14.00;73.50
60313;DHT22;46158;52.850;6.970;2023-04-03T12:36:28;14.10;73.60
60313;DHT22;46158;52.850;6.970;2023-04-03T12:42:05;14.10;73.50
60313;DHT22;46158;52.850;6.970;2023-04-03T12:44:46;14.10;73.40
60313;DHT22;46158;52.850;6.970;2023-04-03T12:47:31;14.10;73.50
60313;DHT22;46158;52.850;6.970;2023-04-03T12:50:03;14.10;73.40
60313;DHT22;46158;52.850;6.970;2023-04-03T12:52:35;14.10;73.40
60313;DHT22;46158;52.850;6.970;2023-04-03T12:55:11;14.10;73.40
60313;DHT22;46158;52.850;6.970;2023-04-03T12:57:39;14.10;73.30
60313;DHT22;46158;52.850;6.970;2023-04-03T13:02:53;14.20;73.00
60313;DHT22;46158;52.850;6.970;2023-04-03T13:05:20;14.10;72.90
60313;DHT22;46158;52.850;6.970;2023-04-03T13:08:02;14.20;72.80
60313;DHT22;46158;52.850;6.970;2023-04-03T13:10:32;14.20;72.60
60313;DHT22;46158;52.850;6.970;2023-04-03T13:13:09;14.10;72.50
60313;DHT22;46158;52.850;6.970;2023-04-03T13:15:47;14.20;72.60
60313;DHT22;46158;52.850;6.970;2023-04-03T13:18:32;14.20;72.50
60313;DHT22;46158;52.850;6.970;2023-04-03T13:21:17;14.20;72.60
60313;DHT22;46158;52.850;6.970;2023-04-03T13:23:47;14.20;73.00
60313;DHT22;46158;52.850;6.970;2023-04-03T13:26:16;14.20;72.90
60313;DHT22;46158;52.850;6.970;2023-04-03T13:28:43;14.20;73.00
60313;DHT22;46158;52.850;6.970;2023-04-03T13:31:18;14.20;73.20
60313;DHT22;46158;52.850;6.970;2023-04-03T13:34:06;14.20;73.20
60313;DHT22;46158;52.850;6.970;2023-04-03T13:36:42;14.20;73.20
60313;DHT22;46158;52.850;6.970;2023-04-03T13:41:41;14.20;73.20
60313;DHT22;46158;52.850;6.970;2023-04-03T13:46:44;14.20;73.00
60313;DHT22;46158;52.850;6.970;2023-04-03T13:49:41;14.20;73.00
60313;DHT22;46158;52.850;6.970;2023-04-03T13:52:40;14.20;72.90
60313;DHT22;46158;52.850;6.970;2023-04-03T13:55:29;14.20;72.90
60313;DHT22;46158;52.850;6.970;2023-04-03T14:03:56;14.20;72.80
60313;DHT22;46158;52.850;6.970;2023-04-03T14:06:27;14.20;72.80
60313;DHT22;46158;52.850;6.970;2023-04-03T14:08:53;14.20;72.80
60313;DHT22;46158;52.850;6.970;2023-04-03T14:11:22;14.20;72.80
60313;DHT22;46158;52.850;6.970;2023-04-03T14:13:50;14.20;72.80
60313;DHT22;46158;52.850;6.970;2023-04-03T14:16:23;14.20;72.90
60313;DHT22;46158;52.850;6.970;2023-04-03T14:18:53;14.30;72.80
60313;DHT22;46158;52.850;6.970;2023-04-03T14:21:23;14.20;72.70
60313;DHT22;46158;52.850;6.970;2023-04-03T14:23:49;14.20;72.70
60313;DHT22;46158;52.850;6.970;2023-04-03T14:26:19;14.30;72.80
60313;DHT22;46158;52.850;6.970;2023-04-03T14:28:47;14.30;72.70
60313;DHT22;46158;52.850;6.970;2023-04-03T14:31:15;14.30;72.80
60313;DHT22;46158;52.850;6.970;2023-04-03T14:33:42;14.30;72.70
60313;DHT22;46158;52.850;6.970;2023-04-03T14:36:20;14.30;72.70
60313;DHT22;46158;52.850;6.970;2023-04-03T14:38:48;14.30;72.60
60313;DHT22;46158;52.850;6.970;2023-04-03T14:41:18;14.30;72.70
60313;DHT22;46158;52.850;6.970;2023-04-03T14:43:45;14.30;72.70
60313;DHT22;46158;52.850;6.970;2023-04-03T14:46:34;14.30;72.70
60313;DHT22;46158;52.850;6.970;2023-04-03T14:49:08;14.30;72.60
60313;DHT22;46158;52.850;6.970;2023-04-03T14:51:37;14.30;72.70
60313;DHT22;46158;52.850;6.970;2023-04-03T14:54:05;14.30;72.70
60313;DHT22;46158;52.850;6.970;2023-04-03T14:56:36;14.20;72.70
60313;DHT22;46158;52.850;6.970;2023-04-03T14:59:08;14.30;72.80
60313;DHT22;46158;52.850;6.970;2023-04-03T15:01:35;14.30;72.70
60313;DHT22;46158;52.850;6.970;2023-04-03T15:04:01;14.30;72.70
60313;DHT22;46158;52.850;6.970;2023-04-03T15:06:30;14.30;72.70
60313;DHT22;46158;52.850;6.970;2023-04-03T15:09:00;14.30;72.70
60313;DHT22;46158;52.850;6.970;2023-04-03T15:11:32;14.30;72.70
60313;DHT22;46158;52.850;6.970;2023-04-03T15:13:59;14.30;72.70
60313;DHT22;46158;52.850;6.970;2023-04-03T15:16:25;14.30;73.40
60313;DHT22;46158;52.850;6.970;2023-04-03T15:18:55;14.30;72.70
60313;DHT22;46158;52.850;6.970;2023-04-03T15:21:21;14.30;72.70
60313;DHT22;46158;52.850;6.970;2023-04-03T15:23:47;14.30;72.70
60313;DHT22;46158;52.850;6.970;2023-04-03T15:26:15;14.30;72.70
60313;DHT22;46158;52.850;6.970;2023-04-03T15:28:52;14.30;72.70
60313;DHT22;46158;52.850;6.970;2023-04-03T15:31:21;14.30;72.50
60313;DHT22;46158;52.850;6.970;2023-04-03T15:33:48;14.30;72.60
60313;DHT22;46158;52.850;6.970;2023-04-03T15:36:14;14.30;72.50
60313;DHT22;46158;52.850;6.970;2023-04-03T15:38:43;14.30;72.40
60313;DHT22;46158;52.850;6.970;2023-04-03T15:41:18;14.30;72.20
60313;DHT22;46158;52.850;6.970;2023-04-03T15:43:45;14.30;72.20
60313;DHT22;46158;52.850;6.970;2023-04-03T15:46:12;14.30;72.30
60313;DHT22;46158;52.850;6.970;2023-04-03T15:48:40;14.30;72.30
60313;DHT22;46158;52.850;6.970;2023-04-03T15:51:07;14.30;72.40
60313;DHT22;46158;52.850;6.970;2023-04-03T15:53:32;14.30;72.40
60313;DHT22;46158;52.850;6.970;2023-04-03T15:55:59;14.30;72.50
60313;DHT22;46158;52.850;6.970;2023-04-03T15:58:25;14.30;72.60
60313;DHT22;46158;52.850;6.970;2023-04-03T16:01:00;14.30;72.70
60313;DHT22;46158;52.850;6.970;2023-04-03T16:03:29;14.30;72.70
60313;DHT22;46158;52.850;6.970;2023-04-03T16:06:04;14.30;72.90
60313;DHT22;46158;52.850;6.970;2023-04-03T16:08:31;14.30;73.00
60313;DHT22;46158;52.850;6.970;2023-04-03T16:10:57;14.30;73.10
60313;DHT22;46158;52.850;6.970;2023-04-03T16:13:28;14.30;73.20
60313;DHT22;46158;52.850;6.970;2023-04-03T16:15:55;14.30;73.20
60313;DHT22;46158;52.850;6.970;2023-04-03T16:18:26;14.30;73.30
60313;DHT22;46158;52.850;6.970;2023-04-03T16:20:56;14.30;73.40
60313;DHT22;46158;52.850;6.970;2023-04-03T16:23:25;14.30;73.40
60313;DHT22;46158;52.850;6.970;2023-04-03T16:25:51;14.30;73.40
60313;DHT22;46158;52.850;6.970;2023-04-03T16:28:18;14.30;73.50
60313;DHT22;46158;52.850;6.970;2023-04-03T16:31:09;14.30;73.50
60313;DHT22;46158;52.850;6.970;2023-04-03T16:33:38;14.30;72.40
60313;DHT22;46158;52.850;6.970;2023-04-03T16:36:05;14.30;72.60
60313;DHT22;46158;52.850;6.970;2023-04-03T16:38:32;14.30;70.90
60313;DHT22;46158;52.850;6.970;2023-04-03T16:44:06;14.30;70.20
60313;DHT22;46158;52.850;6.970;2023-04-03T16:46:40;14.30;70.00
60313;DHT22;46158;52.850;6.970;2023-04-03T16:49:29;14.30;69.60
60313;DHT22;46158;52.850;6.970;2023-04-03T16:52:02;14.30;69.10
60313;DHT22;46158;52.850;6.970;2023-04-03T16:54:31;14.20;68.90
60313;DHT22;46158;52.850;6.970;2023-04-03T16:57:00;14.20;68.70
60313;DHT22;46158;52.850;6.970;2023-04-03T16:59:33;14.20;68.50
60313;DHT22;46158;52.850;6.970;2023-04-03T17:01:59;14.20;68.80
60313;DHT22;46158;52.850;6.970;2023-04-03T17:04:29;14.20;69.20
60313;DHT22;46158;52.850;6.970;2023-04-03T17:07:04;14.20;69.50
60313;DHT22;46158;52.850;6.970;2023-04-03T17:09:59;14.20;69.40
60313;DHT22;46158;52.850;6.970;2023-04-03T17:12:32;14.20;69.60
60313;DHT22;46158;52.850;6.970;2023-04-03T17:15:03;14.20;69.90
60313;DHT22;46158;52.850;6.970;2023-04-03T17:17:52;14.20;70.20
60313;DHT22;46158;52.850;6.970;2023-04-03T17:20:33;14.10;70.30
60313;DHT22;46158;52.850;6.970;2023-04-03T17:23:13;14.10;70.50
60313;DHT22;46158;52.850;6.970;2023-04-03T17:25:42;14.20;70.70
60313;DHT22;46158;52.850;6.970;2023-04-03T17:28:08;14.10;70.80
60313;DHT22;46158;52.850;6.970;2023-04-03T17:30:34;14.10;70.90
60313;DHT22;46158;52.850;6.970;2023-04-03T17:33:00;14.10;71.70
60313;DHT22;46158;52.850;6.970;2023-04-03T17:35:26;14.10;71.10
60313;DHT22;46158;52.850;6.970;2023-04-03T17:37:53;14.10;71.20